AirNav   Pilot Hours Calculator
 
 997 users online  

CT20 Rankl Field Airport
Marlborough, Connecticut, USA

GOING TO MARLBOROUGH?


FAA INFORMATION EFFECTIVE 31 DECEMBER 2020

Location

FAA Identifier: CT20
Lat/Long: 41-36-00.3560N 072-25-58.3060W
41-36.005933N 072-25.971767W
41.6000989,-72.4328628
(estimated)
Elevation: 350 ft. / 107 m (estimated)
Variation: 14W (1985)
From city: 3 miles S of MARLBOROUGH, CT
Time zone: UTC -5 (UTC -4 during Daylight Saving Time)
Zip code: 06447

Airport Operations

Airport use: Private use. Permission required prior to landing
Control tower: no
ARTCC: BOSTON CENTER
FSS: BRIDGEPORT FLIGHT SERVICE STATION
Attendance: UNATNDD
Wind indicator: no
Segmented circle: no

Airport Communications

WX ASOS at HFD (13 nm NW): PHONE 860-527-5837
WX AWOS-3 at SNC (13 nm S): 118.325 (860-526-1551)
WX ASOS at IJD (14 nm NE): 133.675 (860-456-8839)
WX AWOS-AV at CT71 (18 nm W): 129.825
WX ASOS at MMK (19 nm W): 134.925 (203-639-9405)

Nearby radio navigation aids

VOR radial/distance  VOR name  Freq  Var
HFDr129/5.7HARTFORD VOR/DME114.9013W
ORWr292/19.6NORWICH VOR/DME110.0014W
MADr047/20.8MADISON VOR/DME110.4013W
GONr327/23.6GROTON VOR/DME110.8514W
PUTr245/33.9PUTNAM VOR/DME117.4014W
BAFr173/36.0BARNES VORTAC113.0014W

Airport Services

Airframe service: NONE
Powerplant service: NONE

Runway Information

Runway NW/SE

Dimensions: 1600 x 200 ft. / 488 x 61 m
Surface: turf
RUNWAY NW  RUNWAY SE
Traffic pattern: leftleft

Airport Ownership and Management from official FAA records

Ownership: Privately-owned
Owner: THEODORE RANKL
1482 WILDE ST
AVON PARK, FL 33825-8205
Phone 203-295-9704

Additional Remarks

FOR CD CTC YANKEE APCH AT 860-386-3597

Instrument Procedures

There are no published instrument procedures at CT20.

Some nearby airports with instrument procedures:

KHFD - Hartford-Brainard Airport (13 nm NW)
KSNC - Chester Airport (13 nm S)
KIJD - Windham Airport (14 nm NE)
KMMK - Meriden Markham Municipal Airport (19 nm W)
4B8 - Robertson Field Airport (20 nm W)
 
Loc | Ops | Rwys | IFR | FBO | Links
Com | Nav | Svcs | Stats | Notes

Silver City Flying Club
 
Area around CT20 (Rankl Field Airport)
 
Road maps at: MapQuest Bing Google
 
Aerial photo
No photo
 
Sectional chart

 
Airport distance calculator
Flying to Rankl Field Airport? Find the distance to fly.

From to CT20

Sunrise and sunset
Times for 18-Jan-2021
 Local
(UTC-5)
 Zulu
(UTC)
Morning civil twilight06:4311:43
Sunrise07:1412:14
Sunset16:4721:47
Evening civil twilight17:1722:17

Current date and time
Zulu (UTC)  18-Jan-2021 14:40:17
Local (UTC-5)  18-Jan-2021 09:40:17
 
METAR
KHFD 
13nm NW 
181353Z 19005KT 10SM FEW040 FEW100 04/M02 A2967 RMK AO2 SLP047 T00391022
KSNC 
13nm S 
181415Z AUTO 24008KT 200V280 10SM CLR 04/M02 A2968 RMK AO2
KIJD 
14nm NE 
181352Z AUTO 23005KT 10SM CLR 03/M02 A2967 RMK AO2 SLP047 T00281022
KMMK 
19nm W 
181353Z AUTO 19007KT 10SM CLR 03/M03 A2968 RMK AO2 SLP052 T00281028
KBDL 
23nm NW 
181351Z 18005KT 10SM FEW040 FEW100 BKN200 02/M03 A2965 RMK AO2 SLP042 T00221028
KGON 
24nm SE 
181356Z 24011KT 10SM CLR 05/M01 A2969 RMK AO2 SLP055 T00501011
TAF
KBDL 
23nm NW 
181120Z 1812/1918 22006KT P6SM FEW250 FM181800 26010KT P6SM SCT060 FM182000 28009KT P6SM VCSH BKN060 FM190000 29007KT P6SM BKN070 FM190900 28003KT P6SM FEW100
KGON 
24nm SE 
181123Z 1812/1912 25010KT P6SM FEW080 FM181600 25012G19KT P6SM SCT035 FM181900 27013G22KT P6SM BKN045 FM182300 29011KT P6SM BKN045 FM190300 29008KT P6SM SCT035 FM190900 29005KT P6SM SCT100 SCT200
NOTAMs
Click for the latest NOTAMs
NOTAMs are issued by the DoD/FAA and will open in a separate window not controlled by AirNav.

 

 
 

Would you like to see your business listed on this page?

 If your business provides an interesting product or service to pilots, flight crews, aircraft, or users of the Rankl Field Airport, you should consider listing it here.  To start the listing process, click on the button below
 
Add a business
 

Other Pages about Rankl Field Airport

Update a link
 
Copyright © AirNav, LLC. All rights reserved. Privacy Policy  Contact